Time;durP1;ratioP1;P1;durP2;ratioP2;P2;SDS_P1;SDS_P2;PMS_P1;PMS_P2;Temp;Humidity;BMP_temperature;BMP_pressure;BME280_temperature;BME280_humidity;BME280_pressure;Samples;Min_cycle;Max_cycle;Signal;HPM_P1;HPM_P2
2023/04/05 05:00:24;;;;;;;3.97;3.67;;;;;;;;;;4916646;29;20276;-68
2023/04/05 05:02:52;;;;;;;3.67;3.42;;;;;;;;;;4917496;29;20617;-67
2023/04/05 05:05:21;;;;;;;4.90;4.47;;;;;;;;;;4917581;29;20228;-67
2023/04/05 05:07:48;;;;;;;4.10;3.83;;;;;;;;;;4917647;29;20248;-67
2023/04/05 05:10:16;;;;;;;5.43;4.20;;;;;;;;;;4917581;29;20787;-66
2023/04/05 05:12:43;;;;;;;3.85;3.55;;;;;;;;;;4917674;29;20212;-66
2023/04/05 05:15:10;;;;;;;3.85;3.55;;;;;;;;;;4917763;29;20554;-65
2023/04/05 05:17:39;;;;;;;3.78;3.58;;;;;;;;;;4917843;29;20224;-65
2023/04/05 05:20:08;;;;;;;3.45;3.25;;;;;;;;;;4917122;29;20718;-65
2023/04/05 05:22:35;;;;;;;3.95;3.65;;;;;;;;;;4917523;29;20233;-64
2023/04/05 05:25:02;;;;;;;4.15;3.88;;;;;;;;;;4917461;29;20280;-65
2023/04/05 05:27:29;;;;;;;3.75;3.53;;;;;;;;;;4917215;29;20576;-65
2023/04/05 05:29:56;;;;;;;4.07;3.67;;;;;;;;;;4917299;29;20402;-64
2023/04/05 05:32:24;;;;;;;3.90;3.60;;;;;;;;;;4917334;29;20228;-65
2023/04/05 05:34:52;;;;;;;4.63;4.30;;;;;;;;;;4918095;29;20205;-65
2023/04/05 05:37:21;;;;;;;3.67;3.38;;;;;;;;;;4917266;29;20296;-64
2023/04/05 05:39:48;;;;;;;4.57;4.00;;;;;;;;;;4917265;29;20272;-64
2023/04/05 05:42:15;;;;;;;4.07;3.75;;;;;;;;;;4917459;29;20205;-65
2023/04/05 05:44:42;;;;;;;4.60;3.20;;;;;;;;;;4917416;29;20621;-66
2023/04/05 05:47:09;;;;;;;10.38;6.03;;;;;;;;;;4917189;29;20216;-65
2023/04/05 05:49:36;;;;;;;15.95;8.15;;;;;;;;;;4917210;29;20224;-65
2023/04/05 05:52:05;;;;;;;13.20;7.38;;;;;;;;;;4917276;29;20252;-65
2023/04/05 05:54:32;;;;;;;9.20;6.38;;;;;;;;;;4919157;29;20213;-65
2023/04/05 05:56:59;;;;;;;5.53;4.93;;;;;;;;;;4921029;29;20209;-65
2023/04/05 05:59:26;;;;;;;5.82;4.50;;;;;;;;;;4920879;29;20229;-65
2023/04/05 06:01:53;;;;;;;5.35;4.55;;;;;;;;;;4920778;29;20264;-65
2023/04/05 06:04:21;;;;;;;5.15;4.65;;;;;;;;;;4921422;29;20216;-65
2023/04/05 06:06:48;;;;;;;4.78;4.38;;;;;;;;;;4921331;29;20201;-65
2023/04/05 06:09:17;;;;;;;5.80;4.20;;;;;;;;;;4920735;29;20697;-65
2023/04/05 06:11:44;;;;;;;9.98;4.85;;;;;;;;;;4921015;29;20257;-64
2023/04/05 06:14:11;;;;;;;5.05;4.47;;;;;;;;;;4920800;29;20284;-65
2023/04/05 06:16:38;;;;;;;4.45;4.03;;;;;;;;;;4920952;29;20688;-65
2023/04/05 06:19:05;;;;;;;7.15;4.40;;;;;;;;;;4920884;29;20225;-65
2023/04/05 06:21:32;;;;;;;4.78;4.30;;;;;;;;;;4920542;29;20674;-64
2023/04/05 06:23:59;;;;;;;7.82;5.15;;;;;;;;;;4920914;29;20212;-64
2023/04/05 06:26:28;;;;;;;5.28;4.10;;;;;;;;;;4920583;29;20240;-65
2023/04/05 06:28:56;;;;;;;4.65;4.25;;;;;;;;;;4920528;29;20232;-64
2023/04/05 06:31:27;;;;;;;5.78;4.10;;;;;;;;;;4920442;29;20209;-65
2023/04/05 06:33:54;;;;;;;5.18;4.20;;;;;;;;;;4920141;29;20193;-65
2023/04/05 06:36:21;;;;;;;5.43;4.20;;;;;;;;;;4920454;29;20205;-65
2023/04/05 06:38:48;;;;;;;4.57;4.03;;;;;;;;;;4920164;29;20233;-65
2023/04/05 06:41:15;;;;;;;4.03;3.67;;;;;;;;;;4920462;29;20296;-65
2023/04/05 06:43:43;;;;;;;5.13;3.72;;;;;;;;;;4920296;29;20201;-65
2023/04/05 06:46:11;;;;;;;5.45;3.67;;;;;;;;;;4920072;29;20233;-65
2023/04/05 06:48:38;;;;;;;5.10;4.30;;;;;;;;;;4920266;29;20232;-66
2023/04/05 06:51:06;;;;;;;3.80;3.50;;;;;;;;;;4920000;29;20216;-65
2023/04/05 06:53:33;;;;;;;4.03;3.40;;;;;;;;;;4920443;29;20213;-65
2023/04/05 06:56:01;;;;;;;5.90;3.67;;;;;;;;;;4924665;29;20212;-65
2023/04/05 06:58:28;;;;;;;4.88;3.25;;;;;;;;;;4924265;29;20718;-65
2023/04/05 07:00:57;;;;;;;2.90;2.70;;;;;;;;;;4924178;29;20216;-65
2023/04/05 07:03:24;;;;;;;4.72;3.35;;;;;;;;;;4924497;29;20208;-65
2023/04/05 07:05:53;;;;;;;5.75;3.42;;;;;;;;;;4924665;29;20669;-64
2023/04/05 07:08:20;;;;;;;3.40;3.10;;;;;;;;;;4925047;29;20222;-65
2023/04/05 07:10:48;;;;;;;4.03;3.15;;;;;;;;;;4924661;29;20602;-65
2023/04/05 07:13:17;;;;;;;5.60;3.30;;;;;;;;;;4924601;29;20215;-64
2023/04/05 07:15:44;;;;;;;4.95;3.65;;;;;;;;;;4925515;29;20616;-68
2023/04/05 07:18:14;;;;;;;6.25;4.50;;;;;;;;;;4924539;29;20205;-66
2023/04/05 07:20:42;;;;;;;4.80;2.60;;;;;;;;;;4924083;29;20189;-67
2023/04/05 07:23:09;;;;;;;5.30;3.28;;;;;;;;;;4924394;29;20549;-67
2023/04/05 07:25:37;;;;;;;4.43;3.30;;;;;;;;;;4923503;29;20689;-67
2023/04/05 07:28:04;;;;;;;3.47;3.20;;;;;;;;;;4922494;29;20215;-65
2023/04/05 07:30:31;;;;;;;3.05;2.63;;;;;;;;;;4919448;29;20290;-65
2023/04/05 07:32:59;;;;;;;5.38;2.88;;;;;;;;;;4919402;29;20209;-65
2023/04/05 07:35:28;;;;;;;6.60;3.42;;;;;;;;;;4919424;29;20201;-64
2023/04/05 07:37:55;;;;;;;3.45;3.03;;;;;;;;;;4919251;29;20193;-65
2023/04/05 07:40:22;;;;;;;4.50;2.80;;;;;;;;;;4919202;29;20189;-65
2023/04/05 07:42:49;;;;;;;3.35;2.90;;;;;;;;;;4919240;29;20212;-65
2023/04/05 07:45:16;;;;;;;4.00;2.67;;;;;;;;;;4918805;29;20280;-65
2023/04/05 07:47:45;;;;;;;4.95;3.22;;;;;;;;;;4919147;29;20209;-65
2023/04/05 07:50:13;;;;;;;4.18;2.47;;;;;;;;;;4918798;29;20732;-65
2023/04/05 07:52:42;;;;;;;3.10;2.90;;;;;;;;;;4919897;29;20217;-64
2023/04/05 07:55:09;;;;;;;3.08;2.78;;;;;;;;;;4919450;29;20236;-64
2023/04/05 07:57:36;;;;;;;5.95;3.05;;;;;;;;;;4919403;29;20213;-64
2023/04/05 08:00:09;;;;;;;3.45;3.15;;;;;;;;;;4919305;29;20225;-68
2023/04/05 08:02:36;;;;;;;2.95;2.60;;;;;;;;;;4919183;29;20217;-64
2023/04/05 08:05:03;;;;;;;6.97;2.90;;;;;;;;;;4919220;29;20209;-65
2023/04/05 08:07:30;;;;;;;3.03;2.72;;;;;;;;;;4919097;29;20237;-64
2023/04/05 08:09:59;;;;;;;3.40;3.10;;;;;;;;;;4918729;29;20740;-65
2023/04/05 08:12:26;;;;;;;2.78;2.55;;;;;;;;;;4918892;29;20209;-65
2023/04/05 08:14:53;;;;;;;2.83;2.42;;;;;;;;;;4919223;29;20209;-65
2023/04/05 08:17:20;;;;;;;5.57;2.58;;;;;;;;;;4918357;29;20687;-65
2023/04/05 08:19:48;;;;;;;3.28;2.88;;;;;;;;;;4918458;29;20232;-66
2023/04/05 08:22:16;;;;;;;2.78;2.60;;;;;;;;;;4918472;29;20186;-65
2023/04/05 08:24:43;;;;;;;2.80;2.58;;;;;;;;;;4918628;29;20216;-64
2023/04/05 08:27:12;;;;;;;5.95;2.95;;;;;;;;;;4918183;29;20224;-65
2023/04/05 08:29:39;;;;;;;4.03;2.85;;;;;;;;;;4918754;29;20232;-65
2023/04/05 08:32:07;;;;;;;4.55;3.45;;;;;;;;;;4918399;29;20210;-65
2023/04/05 08:34:34;;;;;;;3.42;3.13;;;;;;;;;;4918264;29;20201;-64
2023/04/05 08:37:01;;;;;;;3.95;2.70;;;;;;;;;;4918388;29;20205;-65
2023/04/05 08:39:29;;;;;;;4.25;3.00;;;;;;;;;;4918192;29;20232;-65
2023/04/05 08:41:58;;;;;;;3.25;3.00;;;;;;;;;;4917689;29;20646;-64
2023/04/05 08:44:27;;;;;;;3.10;2.90;;;;;;;;;;4918157;29;20209;-64
2023/04/05 08:46:56;;;;;;;3.50;3.08;;;;;;;;;;4918129;29;20229;-66
2023/04/05 08:49:24;;;;;;;3.85;2.85;;;;;;;;;;4918038;29;20260;-66
2023/04/05 08:51:51;;;;;;;2.75;2.55;;;;;;;;;;4918348;29;20201;-64
2023/04/05 08:54:18;;;;;;;6.30;3.28;;;;;;;;;;4918376;29;20189;-64
2023/04/05 08:56:47;;;;;;;3.70;3.17;;;;;;;;;;4918370;29;20227;-65
2023/04/05 08:59:16;;;;;;;5.68;3.65;;;;;;;;;;4917814;29;20293;-65
2023/04/05 09:01:47;;;;;;;3.80;3.45;;;;;;;;;;4917957;29;20220;-65
2023/04/05 09:04:16;;;;;;;5.93;3.05;;;;;;;;;;4920481;29;20225;-66
2023/04/05 09:06:44;;;;;;;3.30;3.10;;;;;;;;;;4917751;29;20233;-64
2023/04/05 09:09:11;;;;;;;3.08;2.88;;;;;;;;;;4917727;29;20229;-64
2023/04/05 09:11:40;;;;;;;5.53;3.30;;;;;;;;;;4917687;29;20212;-66
2023/04/05 09:14:07;;;;;;;2.88;2.58;;;;;;;;;;4917995;29;20237;-66
2023/04/05 09:16:37;;;;;;;2.80;2.60;;;;;;;;;;4917471;29;20201;-66
2023/04/05 09:19:06;;;;;;;4.40;3.17;;;;;;;;;;4917938;29;20229;-66
2023/04/05 09:21:48;;;;;;;3.38;2.65;;;;;;;;;;4917141;29;20676;-66
2023/04/05 09:24:15;;;;;;;2.95;2.50;;;;;;;;;;4916692;29;20201;-66
2023/04/05 09:26:42;;;;;;;3.10;2.85;;;;;;;;;;4917057;29;20233;-64
2023/04/05 09:29:09;;;;;;;5.15;3.00;;;;;;;;;;4916750;29;20589;-65
2023/04/05 09:31:37;;;;;;;2.80;2.60;;;;;;;;;;4917363;29;20208;-64
2023/04/05 09:34:07;;;;;;;3.50;3.25;;;;;;;;;;4917640;29;20205;-66
2023/04/05 09:36:35;;;;;;;4.25;3.05;;;;;;;;;;4917291;29;20190;-66
2023/04/05 09:39:06;;;;;;;3.75;3.35;;;;;;;;;;4917325;29;20311;-67
2023/04/05 09:41:33;;;;;;;3.42;2.80;;;;;;;;;;4916905;29;20694;-67
2023/04/05 09:44:00;;;;;;;3.45;3.15;;;;;;;;;;4917088;29;20213;-66
2023/04/05 09:46:32;;;;;;;4.32;3.00;;;;;;;;;;4916880;29;20637;-67
2023/04/05 09:49:00;;;;;;;4.95;4.03;;;;;;;;;;4917625;29;20268;-67
2023/04/05 09:51:33;;;;;;;3.65;3.00;;;;;;;;;;4917107;29;20544;-67
2023/04/05 09:54:02;;;;;;;3.28;3.08;;;;;;;;;;4917548;29;20193;-66
2023/04/05 09:56:30;;;;;;;4.38;3.65;;;;;;;;;;4917277;29;20208;-66
2023/04/05 09:59:01;;;;;;;3.33;3.00;;;;;;;;;;4917277;29;20225;-67
2023/04/05 10:01:28;;;;;;;4.55;3.05;;;;;;;;;;4916845;29;20220;-67
2023/04/05 10:03:57;;;;;;;3.55;3.22;;;;;;;;;;4917107;29;20212;-67
2023/04/05 10:06:24;;;;;;;3.97;3.47;;;;;;;;;;4917191;29;20221;-67
2023/04/05 10:08:53;;;;;;;4.65;3.47;;;;;;;;;;4917034;29;20264;-66
2023/04/05 10:11:21;;;;;;;5.75;3.22;;;;;;;;;;4917633;29;20209;-64
2023/04/05 10:13:49;;;;;;;2.85;2.67;;;;;;;;;;4917774;29;20206;-65
2023/04/05 10:16:21;;;;;;;4.85;3.00;;;;;;;;;;4917668;29;20292;-64
2023/04/05 10:18:50;;;;;;;3.58;2.92;;;;;;;;;;4917390;29;20260;-66
2023/04/05 10:21:19;;;;;;;3.70;2.70;;;;;;;;;;4917287;29;20206;-65
2023/04/05 10:23:47;;;;;;;3.28;3.08;;;;;;;;;;4916544;29;20201;-66
2023/04/05 10:26:20;;;;;;;4.55;2.92;;;;;;;;;;4917435;29;20229;-65
2023/04/05 10:28:48;;;;;;;3.13;2.92;;;;;;;;;;4916806;29;20225;-65
2023/04/05 10:31:20;;;;;;;4.93;2.60;;;;;;;;;;4916425;29;20768;-65
2023/04/05 10:33:47;;;;;;;3.50;2.70;;;;;;;;;;4917197;29;20190;-65
2023/04/05 10:36:19;;;;;;;4.47;2.80;;;;;;;;;;4916954;29;20300;-65
2023/04/05 10:38:52;;;;;;;3.58;3.28;;;;;;;;;;4916811;29;20238;-66
2023/04/05 10:41:20;;;;;;;2.97;2.75;;;;;;;;;;4918493;29;20186;-65
2023/04/05 10:43:49;;;;;;;3.72;3.30;;;;;;;;;;4919986;29;20212;-65
2023/04/05 10:46:20;;;;;;;3.22;3.03;;;;;;;;;;4919976;29;20221;-65
2023/04/05 10:48:49;;;;;;;3.40;3.00;;;;;;;;;;4920066;29;20257;-64
2023/04/05 10:51:16;;;;;;;2.95;2.75;;;;;;;;;;4919948;29;20272;-64
2023/04/05 10:53:44;;;;;;;5.03;3.55;;;;;;;;;;4919859;29;20217;-64
2023/04/05 10:56:12;;;;;;;4.95;3.28;;;;;;;;;;4919521;29;20589;-64
2023/04/05 10:58:41;;;;;;;2.78;2.67;;;;;;;;;;4919871;29;20257;-64
2023/04/05 11:01:09;;;;;;;3.35;3.05;;;;;;;;;;4919530;29;20216;-64
2023/04/05 11:03:43;;;;;;;3.55;3.22;;;;;;;;;;4919444;29;20634;-64
2023/04/05 11:06:23;;;;;;;3.45;3.15;;;;;;;;;;4919684;29;20209;-64
2023/04/05 11:08:51;;;;;;;3.53;3.17;;;;;;;;;;4919591;29;20221;-65
2023/04/05 11:11:20;;;;;;;3.40;2.95;;;;;;;;;;4920148;29;20205;-67
2023/04/05 11:13:52;;;;;;;3.70;3.38;;;;;;;;;;4919504;29;20205;-67
2023/04/05 11:16:20;;;;;;;3.25;2.95;;;;;;;;;;4919469;29;20209;-67
2023/04/05 11:18:47;;;;;;;3.97;3.53;;;;;;;;;;4919291;29;20631;-65
2023/04/05 11:21:21;;;;;;;6.80;3.00;;;;;;;;;;4920240;29;20208;-64
2023/04/05 11:24:02;;;;;;;3.63;3.33;;;;;;;;;;4919124;29;20595;-64
2023/04/05 11:26:32;;;;;;;3.97;3.20;;;;;;;;;;4919288;29;20225;-64
2023/04/05 11:29:00;;;;;;;5.25;3.38;;;;;;;;;;4918980;29;20261;-65
2023/04/05 11:31:27;;;;;;;3.55;2.83;;;;;;;;;;4918930;29;20327;-64
2023/04/05 11:33:58;;;;;;;3.50;3.20;;;;;;;;;;4919235;29;20595;-64
2023/04/05 11:36:40;;;;;;;3.28;2.83;;;;;;;;;;4918843;29;20193;-64
2023/04/05 11:39:28;;;;;;;3.00;2.80;;;;;;;;;;4919017;29;20226;-65
2023/04/05 11:41:56;;;;;;;3.50;3.10;;;;;;;;;;4913166;29;20216;-64
2023/04/05 11:44:25;;;;;;;3.80;3.50;;;;;;;;;;4918816;29;20668;-65
2023/04/05 11:46:52;;;;;;;5.60;3.45;;;;;;;;;;4918855;29;20260;-65
2023/04/05 11:49:20;;;;;;;3.67;3.20;;;;;;;;;;4918827;29;20229;-64
2023/04/05 11:51:48;;;;;;;3.33;2.95;;;;;;;;;;4918124;29;20677;-65
2023/04/05 11:54:15;;;;;;;2.72;2.53;;;;;;;;;;4918948;29;20244;-64
2023/04/05 11:56:42;;;;;;;8.15;4.68;;;;;;;;;;4918645;29;20280;-64
2023/04/05 11:59:14;;;;;;;3.95;3.38;;;;;;;;;;4918590;29;20228;-65
2023/04/05 12:01:46;;;;;;;3.25;3.05;;;;;;;;;;4920231;29;20686;-64
2023/04/05 12:04:14;;;;;;;3.20;2.90;;;;;;;;;;4919615;29;20605;-64
2023/04/05 12:06:41;;;;;;;4.05;3.00;;;;;;;;;;4919524;29;20233;-65
2023/04/05 12:09:08;;;;;;;3.95;3.60;;;;;;;;;;4919608;29;20229;-66
2023/04/05 12:11:37;;;;;;;4.75;3.15;;;;;;;;;;4919250;29;20565;-65
2023/04/05 12:14:05;;;;;;;4.78;3.63;;;;;;;;;;4919535;29;20220;-65
2023/04/05 12:16:32;;;;;;;4.32;3.22;;;;;;;;;;4919191;29;20201;-65
2023/04/05 12:19:01;;;;;;;3.17;2.97;;;;;;;;;;4919608;29;20252;-65
2023/04/05 15:25:38;;;;;;;3.78;3.47;;;;;;;;;;5721202;23;20646;-65
2023/04/05 15:28:07;;;;;;;3.90;2.97;;;;;;;;;;4975991;28;20234;-66
2023/04/05 15:30:34;;;;;;;4.25;3.60;;;;;;;;;;4977084;28;20199;-66
2023/04/05 15:33:01;;;;;;;2.95;2.75;;;;;;;;;;4976783;28;20208;-66
2023/04/05 15:35:28;;;;;;;3.40;3.20;;;;;;;;;;4976700;28;20220;-66
2023/04/05 15:37:55;;;;;;;3.75;3.45;;;;;;;;;;4976857;28;20286;-66
2023/04/05 15:40:22;;;;;;;3.65;3.33;;;;;;;;;;4976363;28;20219;-66
2023/04/05 15:42:49;;;;;;;4.13;3.17;;;;;;;;;;4976728;28;20207;-65
2023/04/05 15:45:18;;;;;;;4.53;3.58;;;;;;;;;;4976498;28;20227;-66
2023/04/05 15:47:45;;;;;;;3.97;3.42;;;;;;;;;;4976472;28;20227;-66
2023/04/05 15:50:12;;;;;;;4.07;3.67;;;;;;;;;;4976454;28;20629;-66
2023/04/05 15:52:39;;;;;;;3.83;3.47;;;;;;;;;;4976027;28;20203;-66
2023/04/05 15:55:06;;;;;;;4.18;3.88;;;;;;;;;;4976390;28;20235;-65
2023/04/05 15:57:33;;;;;;;6.93;3.95;;;;;;;;;;4976395;28;20566;-65
2023/04/05 16:00:00;;;;;;;6.15;3.75;;;;;;;;;;4976562;28;20199;-66
2023/04/05 16:02:30;;;;;;;4.20;3.80;;;;;;;;;;4976463;28;20211;-66
2023/04/05 16:04:57;;;;;;;4.15;3.67;;;;;;;;;;4976452;28;20286;-66
2023/04/05 16:07:24;;;;;;;3.42;3.22;;;;;;;;;;4976505;28;20219;-67
2023/04/05 16:09:51;;;;;;;4.95;4.43;;;;;;;;;;4976618;28;20200;-67
2023/04/05 16:12:18;;;;;;;4.75;3.55;;;;;;;;;;4976623;28;20286;-67
2023/04/05 16:14:45;;;;;;;4.40;4.00;;;;;;;;;;4976565;28;20203;-67
2023/04/05 16:17:12;;;;;;;4.32;3.92;;;;;;;;;;4982872;28;20557;-66
2023/04/05 16:19:41;;;;;;;4.43;4.05;;;;;;;;;;4979248;28;20199;-64
2023/04/05 16:22:08;;;;;;;3.67;3.40;;;;;;;;;;4976444;28;20291;-64
2023/04/05 16:24:37;;;;;;;4.00;3.53;;;;;;;;;;4976421;28;20204;-64
2023/04/05 16:27:04;;;;;;;3.70;3.30;;;;;;;;;;4975757;28;20330;-63
2023/04/05 16:29:31;;;;;;;4.45;3.95;;;;;;;;;;4975820;28;20207;-63
2023/04/05 16:31:58;;;;;;;5.15;4.60;;;;;;;;;;4975621;28;20682;-64
2023/04/05 16:34:25;;;;;;;4.50;3.97;;;;;;;;;;4975586;28;20203;-64
2023/04/05 16:36:53;;;;;;;4.28;3.90;;;;;;;;;;4975592;28;20223;-64
2023/04/05 16:39:20;;;;;;;4.07;3.63;;;;;;;;;;4975412;28;20207;-64
2023/04/05 16:41:47;;;;;;;3.55;3.35;;;;;;;;;;4975307;28;20617;-63
2023/04/05 16:44:14;;;;;;;4.25;3.95;;;;;;;;;;4975491;28;20194;-64
2023/04/05 16:46:44;;;;;;;3.65;3.28;;;;;;;;;;4975451;28;20231;-64
2023/04/05 16:49:11;;;;;;;3.80;2.97;;;;;;;;;;4975084;28;20694;-64
2023/04/05 16:51:38;;;;;;;3.85;3.42;;;;;;;;;;4975096;28;20671;-65
2023/04/05 16:54:06;;;;;;;4.85;3.45;;;;;;;;;;4975103;28;20675;-63
2023/04/05 16:56:33;;;;;;;2.95;2.75;;;;;;;;;;4974876;28;20727;-64
2023/04/05 16:59:00;;;;;;;2.72;2.53;;;;;;;;;;4975315;28;20195;-64
2023/04/05 17:01:28;;;;;;;2.85;2.75;;;;;;;;;;4975250;28;20199;-65
2023/04/05 17:03:58;;;;;;;2.72;2.58;;;;;;;;;;4974797;28;20298;-64
2023/04/05 17:06:26;;;;;;;3.00;2.50;;;;;;;;;;4975138;28;20223;-64
2023/04/05 17:08:53;;;;;;;2.97;2.78;;;;;;;;;;4974913;28;20317;-64
2023/04/05 17:11:22;;;;;;;3.00;2.40;;;;;;;;;;4976980;28;20694;-64
2023/04/05 17:13:49;;;;;;;2.97;2.78;;;;;;;;;;4979688;28;20203;-63
2023/04/05 17:16:16;;;;;;;2.25;2.15;;;;;;;;;;4979065;28;20227;-65
2023/04/05 17:18:44;;;;;;;1.83;1.77;;;;;;;;;;4978265;28;20238;-63
2023/04/05 17:21:12;;;;;;;3.70;3.38;;;;;;;;;;4978587;28;20683;-64
2023/04/05 17:23:39;;;;;;;4.97;3.10;;;;;;;;;;4979057;28;20525;-64
2023/04/05 17:26:06;;;;;;;3.05;2.80;;;;;;;;;;4978664;28;20683;-64
2023/04/05 17:28:35;;;;;;;3.20;3.00;;;;;;;;;;4978909;28;20250;-64
2023/04/05 17:31:03;;;;;;;2.88;2.67;;;;;;;;;;4975180;28;20215;-64
2023/04/05 17:33:30;;;;;;;2.67;2.55;;;;;;;;;;4978657;28;20294;-64
2023/04/05 17:35:58;;;;;;;2.55;2.40;;;;;;;;;;4977766;28;20590;-64
2023/04/05 17:38:26;;;;;;;2.72;2.53;;;;;;;;;;4977850;28;20204;-64
2023/04/05 17:40:56;;;;;;;2.08;2.00;;;;;;;;;;4979371;28;20211;-64
2023/04/05 17:43:23;;;;;;;2.25;2.10;;;;;;;;;;4978087;28;20199;-64
2023/04/05 17:45:53;;;;;;;1.90;1.80;;;;;;;;;;4978759;28;20227;-64
2023/04/05 17:48:20;;;;;;;2.25;2.05;;;;;;;;;;4978886;28;20248;-64
2023/04/05 17:50:47;;;;;;;1.60;1.60;;;;;;;;;;4981444;28;20199;-65
2023/04/05 17:53:15;;;;;;;1.60;1.60;;;;;;;;;;4982861;28;20207;-63
2023/04/05 17:55:43;;;;;;;2.15;1.95;;;;;;;;;;4982021;28;20220;-64
2023/04/05 17:58:10;;;;;;;2.00;1.90;;;;;;;;;;4983133;28;20199;-63
2023/04/05 18:00:38;;;;;;;1.92;1.83;;;;;;;;;;4982009;28;20732;-63
2023/04/05 18:03:07;;;;;;;2.08;1.98;;;;;;;;;;5002624;23;20234;-67
2023/04/05 18:05:34;;;;;;;2.10;2.00;;;;;;;;;;4981341;28;20195;-68
2023/04/05 18:08:01;;;;;;;2.17;2.00;;;;;;;;;;4981091;28;20233;-68
2023/04/05 18:10:28;;;;;;;2.33;2.17;;;;;;;;;;4982078;28;20207;-68
2023/04/05 18:12:55;;;;;;;2.40;2.25;;;;;;;;;;4979549;28;20192;-68
2023/04/05 18:15:22;;;;;;;2.42;2.22;;;;;;;;;;4978544;28;20247;-68
2023/04/05 18:17:49;;;;;;;2.80;2.63;;;;;;;;;;4979101;28;20203;-69
2023/04/05 18:20:18;;;;;;;2.47;2.38;;;;;;;;;;4978632;28;20207;-71
2023/04/05 18:22:45;;;;;;;2.78;2.53;;;;;;;;;;4978300;28;20229;-69
2023/04/05 18:25:12;;;;;;;2.53;2.03;;;;;;;;;;4978096;28;20586;-70
2023/04/05 18:27:41;;;;;;;2.03;1.92;;;;;;;;;;4978029;28;20290;-70
2023/04/05 18:30:08;;;;;;;1.63;1.63;;;;;;;;;;4978291;28;20219;-70
2023/04/05 18:32:35;;;;;;;1.63;1.63;;;;;;;;;;4978303;28;20536;-70
2023/04/05 18:35:02;;;;;;;1.95;1.85;;;;;;;;;;4977972;28;20282;-67
2023/04/05 18:37:31;;;;;;;2.03;1.83;;;;;;;;;;4978067;28;20208;-67
2023/04/05 18:39:58;;;;;;;1.67;1.67;;;;;;;;;;4977877;28;20585;-68
2023/04/05 18:42:25;;;;;;;1.80;1.70;;;;;;;;;;4978009;28;20199;-68
2023/04/05 18:44:52;;;;;;;1.73;1.67;;;;;;;;;;4978003;28;20231;-68
2023/04/05 18:47:19;;;;;;;2.53;2.13;;;;;;;;;;4978111;28;20195;-68
2023/04/05 18:49:46;;;;;;;2.95;1.92;;;;;;;;;;4977872;28;20289;-68
2023/04/05 18:52:13;;;;;;;1.92;1.83;;;;;;;;;;4977903;28;20203;-68
2023/04/05 18:54:41;;;;;;;2.30;1.95;;;;;;;;;;4977622;28;20278;-68
2023/04/05 18:57:08;;;;;;;1.77;1.70;;;;;;;;;;4977472;28;20560;-67
2023/04/05 18:59:35;;;;;;;1.92;1.83;;;;;;;;;;4977637;28;20204;-68
2023/04/05 19:02:03;;;;;;;2.25;2.00;;;;;;;;;;4976524;28;20200;-68
2023/04/05 19:04:30;;;;;;;2.25;2.15;;;;;;;;;;4977243;28;20231;-68
2023/04/05 19:06:58;;;;;;;1.90;1.80;;;;;;;;;;4977511;28;20551;-68
2023/04/05 19:09:26;;;;;;;1.90;1.90;;;;;;;;;;4977374;28;20230;-68
2023/04/05 19:11:55;;;;;;;1.80;1.70;;;;;;;;;;4977542;28;20199;-67
2023/04/05 19:14:22;;;;;;;2.53;2.33;;;;;;;;;;4977383;28;20224;-68
2023/04/05 19:16:49;;;;;;;1.90;1.80;;;;;;;;;;4977415;28;20218;-68
2023/04/05 19:19:17;;;;;;;1.98;1.88;;;;;;;;;;4977362;28;20215;-66
2023/04/05 19:21:44;;;;;;;2.35;2.25;;;;;;;;;;4977410;28;20213;-68
2023/04/05 19:24:13;;;;;;;4.13;3.72;;;;;;;;;;4976775;28;20715;-68
2023/04/05 19:26:40;;;;;;;3.70;3.33;;;;;;;;;;4976856;28;20246;-68
2023/04/05 19:29:09;;;;;;;4.93;3.75;;;;;;;;;;4977092;28;20231;-68
2023/04/05 19:31:37;;;;;;;4.78;3.95;;;;;;;;;;4977051;28;20254;-68
2023/04/05 19:34:06;;;;;;;3.80;2.92;;;;;;;;;;4976868;28;20250;-68
2023/04/05 19:36:35;;;;;;;3.53;3.10;;;;;;;;;;4977046;28;20203;-68
2023/04/05 19:39:02;;;;;;;3.20;2.92;;;;;;;;;;4976973;28;20227;-68
2023/04/05 19:41:31;;;;;;;3.35;3.08;;;;;;;;;;4977372;28;20302;-67
2023/04/05 19:43:58;;;;;;;3.42;3.13;;;;;;;;;;4976829;28;20310;-67
2023/04/05 19:46:28;;;;;;;3.45;3.25;;;;;;;;;;4976920;28;20234;-67
2023/04/05 19:48:56;;;;;;;3.22;3.03;;;;;;;;;;4976700;28;20229;-67
2023/04/05 19:51:27;;;;;;;3.22;3.05;;;;;;;;;;4976757;28;20199;-66
2023/04/05 19:53:54;;;;;;;3.72;3.33;;;;;;;;;;4976725;28;20367;-67
2023/04/05 19:56:22;;;;;;;3.85;3.55;;;;;;;;;;4976632;28;20210;-66
2023/04/05 19:58:50;;;;;;;3.30;3.00;;;;;;;;;;4976522;28;20246;-66
2023/04/05 20:01:29;;;;;;;3.35;3.05;;;;;;;;;;4976645;28;20207;-67
2023/04/05 20:03:57;;;;;;;3.70;3.35;;;;;;;;;;4975991;28;20234;-67
2023/04/05 20:06:26;;;;;;;3.38;3.17;;;;;;;;;;4976037;28;20697;-67
2023/04/05 20:08:55;;;;;;;3.47;3.20;;;;;;;;;;4976836;28;20298;-67
2023/04/05 20:11:23;;;;;;;3.70;3.42;;;;;;;;;;4975845;28;20570;-68
2023/04/05 20:13:51;;;;;;;2.88;2.67;;;;;;;;;;4975759;28;20284;-68
2023/04/05 20:16:18;;;;;;;3.22;3.03;;;;;;;;;;4976361;28;20199;-68
2023/04/05 20:18:46;;;;;;;3.13;2.72;;;;;;;;;;4975985;28;20207;-68
2023/04/05 20:21:15;;;;;;;3.10;2.88;;;;;;;;;;4976121;28;20203;-68
2023/04/05 20:23:42;;;;;;;2.92;2.75;;;;;;;;;;4975869;28;20231;-68
2023/04/05 20:26:12;;;;;;;3.30;3.00;;;;;;;;;;4975889;28;20298;-68
2023/04/05 20:28:40;;;;;;;3.38;3.17;;;;;;;;;;4975603;28;20695;-68
2023/04/05 20:31:09;;;;;;;3.75;3.53;;;;;;;;;;4975938;28;20207;-68
2023/04/05 20:33:42;;;;;;;3.45;3.10;;;;;;;;;;4976499;28;20219;-68
2023/04/05 20:36:09;;;;;;;3.22;2.97;;;;;;;;;;4975783;28;20191;-68
2023/04/05 20:38:38;;;;;;;3.60;3.30;;;;;;;;;;4975665;28;20715;-69
2023/04/05 20:41:05;;;;;;;3.90;3.60;;;;;;;;;;4975669;28;20203;-70
2023/04/05 20:43:33;;;;;;;3.80;3.50;;;;;;;;;;4975433;28;20661;-69
2023/04/05 20:46:01;;;;;;;3.55;3.35;;;;;;;;;;4975626;28;20203;-70
2023/04/05 20:48:28;;;;;;;4.07;3.75;;;;;;;;;;4975392;28;20203;-70
2023/04/05 20:50:56;;;;;;;3.55;3.35;;;;;;;;;;4975471;28;20215;-70
2023/04/05 20:53:23;;;;;;;3.38;3.17;;;;;;;;;;4975352;28;20235;-69
2023/04/05 20:55:51;;;;;;;3.13;2.90;;;;;;;;;;4975392;28;20199;-69
2023/04/05 20:58:18;;;;;;;3.92;3.63;;;;;;;;;;4975421;28;20203;-69
2023/04/05 21:00:45;;;;;;;4.03;3.72;;;;;;;;;;4975078;28;20699;-69
2023/04/05 21:03:12;;;;;;;3.70;3.42;;;;;;;;;;4974705;28;20647;-69
2023/04/05 21:05:39;;;;;;;3.40;3.20;;;;;;;;;;4975257;28;20255;-69
2023/04/05 21:08:07;;;;;;;3.90;3.20;;;;;;;;;;4975185;28;20207;-69
2023/04/05 21:10:34;;;;;;;3.63;3.40;;;;;;;;;;4975087;28;20219;-69
